KHND

Henderson Executive Airport

Las Vegas, Nevada, USA
METAR KHND 240156Z 16012G16KT 10SM CLR 30/M01 A2985 RMK AO2 SLP086 T03001006 $
Observed Flight Rules
May-24 @ 01:56 UTC (9 minutes ago) Visual Flight Rules
Wind Visibility Clouds
160° at 12 knots
 Gusting to 16 knots
10 miles
  • Clear skies
Temperatures Readings
Current 30°C / 86°F
Dewpoint -1°C / 30°F
Humidity 13%
Altimeter 29.85" Hg
Pressure 1008.6 hPa
Elevation 749
METAR KHND 240156Z 16012G16KT 10SM CLR 30/M01 A2985 RMK AO2 SLP086 T03001006 $
Observed Flight Rules
May-24 @ 01:56 UTC
(9 minutes ago)
VFR
Wind Visibility
160° at 12 knots
 Gusting to 16 knots
10 miles
Clouds
  • Clear skies
Temperature Dewpoint
30°C / 86°F -1°C / 30°F
Humidity Altimeter Pressure
13% 29.85" Hg 1008.6 hPa